Terminal Aerodrome Forecast
Issued by NWS Upton, NY

Home | Current Version | Previous Version | Text Only | Print | Product List | Glossary On
Versions: 1 2 3 4 5 6 7 8 9 10 11 12 13 14 15 16 17 18 19 20 21 22 23 24 25 26 27 28 29 30 31 32 33 34 35 36 37 38 39 40 41 42 43 44 45
109
FTUS41 KOKX 030910 AAB
TAFJFK
TAF AMD
KJFK 030910Z 0309/0412 31015G23KT P6SM BKN050
     FM031400 31016G27KT P6SM BKN040
     FM031900 31022G30KT P6SM BKN040
     FM032300 31014G20KT P6SM SCT040
     FM040500 32012KT P6SM FEW030=

USA.gov is the U.S. government's official web portal to all federal, state and local government web resources and services.